createdAt,value
2022-09-24T00:01:49.173Z,12.10
2022-09-24T00:04:17.130Z,12.10
2022-09-24T00:06:47.202Z,12.10
2022-09-24T00:09:17.066Z,12.00
2022-09-24T00:11:45.560Z,12.10
2022-09-24T00:14:15.371Z,12.20
2022-09-24T00:16:44.235Z,12.20
2022-09-24T00:19:13.429Z,12.10
2022-09-24T00:21:42.694Z,12.10
2022-09-24T00:24:34.576Z,12.10
2022-09-24T00:27:03.107Z,12.10
2022-09-24T00:29:33.917Z,12.10
2022-09-24T00:32:02.544Z,12.10
2022-09-24T00:35:37.867Z,12.10
2022-09-24T00:38:06.264Z,12.10
2022-09-24T00:40:36.964Z,12.10
2022-09-24T00:43:23.641Z,12.10
2022-09-24T00:45:55.664Z,12.10
2022-09-24T00:48:24.322Z,11.90
2022-09-24T00:50:52.718Z,11.90
2022-09-24T00:53:25.609Z,11.80
2022-09-24T00:55:55.624Z,11.70
2022-09-24T00:58:24.207Z,11.70
2022-09-24T01:00:59.531Z,11.70
2022-09-24T01:03:28.822Z,11.60
2022-09-24T01:05:58.472Z,11.60
2022-09-24T01:08:26.821Z,11.40
2022-09-24T01:11:08.922Z,11.30
2022-09-24T01:14:00.349Z,11.20
2022-09-24T01:16:36.057Z,11.20
2022-09-24T01:19:19.233Z,11.10
2022-09-24T01:21:54.054Z,11.10
2022-09-24T01:24:40.400Z,11.30
2022-09-24T01:27:15.037Z,11.40
2022-09-24T01:29:53.525Z,11.40
2022-09-24T01:32:31.581Z,11.50
2022-09-24T01:35:04.238Z,11.50
2022-09-24T01:37:35.403Z,11.50
2022-09-24T01:40:05.988Z,11.40
2022-09-24T01:42:35.384Z,11.40
2022-09-24T01:45:06.481Z,11.20
2022-09-24T01:47:39.720Z,11.10
2022-09-24T01:50:09.252Z,11.00
2022-09-24T01:52:43.643Z,11.00
2022-09-24T01:55:16.575Z,10.90
2022-09-24T01:57:48.004Z,10.80
2022-09-24T02:00:20.000Z,10.60
2022-09-24T02:02:50.696Z,10.60
2022-09-24T02:05:25.207Z,10.70
2022-09-24T02:07:59.301Z,10.80
2022-09-24T02:10:31.654Z,10.80
2022-09-24T02:13:05.122Z,10.90
2022-09-24T02:15:38.311Z,10.80
2022-09-24T02:18:09.788Z,10.80
2022-09-24T02:20:40.805Z,11.00
2022-09-24T02:23:11.821Z,10.90
2022-09-24T02:25:45.143Z,11.00
2022-09-24T02:28:13.184Z,11.20
2022-09-24T02:30:46.947Z,11.30
2022-09-24T02:33:30.116Z,11.40
2022-09-24T02:35:58.494Z,11.40
2022-09-24T02:38:26.526Z,11.40
2022-09-24T02:40:55.499Z,11.30
2022-09-24T02:43:23.647Z,11.30
2022-09-24T02:45:53.025Z,11.40
2022-09-24T02:48:21.154Z,11.40
2022-09-24T02:50:49.061Z,11.30
2022-09-24T02:53:17.046Z,11.40
2022-09-24T02:55:45.232Z,11.50
2022-09-24T02:58:13.207Z,11.50
2022-09-24T03:00:41.168Z,11.50
2022-09-24T03:03:10.610Z,11.40
2022-09-24T03:05:38.661Z,11.40
2022-09-24T03:08:07.520Z,11.40
2022-09-24T03:10:35.782Z,11.40
2022-09-24T03:13:03.825Z,11.40
2022-09-24T03:15:31.851Z,11.40
2022-09-24T03:17:59.865Z,11.40
2022-09-24T03:20:29.202Z,11.50
2022-09-24T03:22:57.190Z,11.50
2022-09-24T03:25:25.362Z,11.50
2022-09-24T03:27:53.339Z,11.50
2022-09-24T03:30:38.984Z,11.50
2022-09-24T03:33:07.061Z,11.50
2022-09-24T03:35:36.358Z,11.60
2022-09-24T03:38:04.392Z,11.50
2022-09-24T03:40:32.398Z,11.50
2022-09-24T03:43:00.449Z,11.50
2022-09-24T03:45:28.471Z,11.50
2022-09-24T03:47:56.466Z,11.60
2022-09-24T03:50:24.455Z,11.60
2022-09-24T03:52:53.802Z,11.80
2022-09-24T03:55:21.814Z,11.90
2022-09-24T03:57:49.845Z,11.80
2022-09-24T04:00:17.987Z,11.90
2022-09-24T04:02:46.255Z,11.90
2022-09-24T04:05:14.303Z,11.90
2022-09-24T04:07:43.983Z,11.90
2022-09-24T04:10:13.754Z,12.00
2022-09-24T04:12:43.576Z,12.00
2022-09-24T04:15:12.211Z,12.10
2022-09-24T04:17:40.335Z,12.10
2022-09-24T04:20:09.147Z,12.10
2022-09-24T04:22:37.103Z,12.20
2022-09-24T04:25:05.581Z,12.20
2022-09-24T04:27:36.119Z,12.20
2022-09-24T04:30:04.179Z,12.20
2022-09-24T04:32:32.412Z,12.20
2022-09-24T04:35:05.390Z,12.30
2022-09-24T04:37:36.036Z,12.30
2022-09-24T04:40:04.361Z,12.30
2022-09-24T04:42:33.738Z,12.20
2022-09-24T04:45:02.359Z,12.10
2022-09-24T04:47:30.292Z,12.00
2022-09-24T04:50:02.027Z,12.00
2022-09-24T04:52:32.557Z,11.90
2022-09-24T04:55:00.970Z,11.90
2022-09-24T04:57:33.001Z,11.90
2022-09-24T05:00:02.756Z,11.90
2022-09-24T05:02:31.397Z,11.90
2022-09-24T05:04:59.442Z,11.80
2022-09-24T05:07:27.626Z,11.80
2022-09-24T05:09:55.620Z,11.80
2022-09-24T05:12:23.581Z,11.80
2022-09-24T05:14:51.600Z,11.80
2022-09-24T05:17:21.517Z,11.70
2022-09-24T05:19:49.679Z,11.80
2022-09-24T05:22:17.739Z,11.90
2022-09-24T05:24:45.817Z,11.90
2022-09-24T05:27:12.826Z,11.80
2022-09-24T05:29:43.415Z,11.80
2022-09-24T05:32:14.090Z,11.80
2022-09-24T05:34:44.346Z,11.90
2022-09-24T05:37:13.991Z,12.10
2022-09-24T05:39:42.002Z,12.00
2022-09-24T05:42:13.844Z,12.10
2022-09-24T05:44:42.896Z,12.20
2022-09-24T05:47:11.074Z,12.10
2022-09-24T05:49:39.398Z,12.20
2022-09-24T05:52:09.962Z,12.20
2022-09-24T05:54:37.990Z,12.20
2022-09-24T05:57:05.960Z,12.20
2022-09-24T05:59:33.936Z,12.20
2022-09-24T06:02:01.981Z,12.30
2022-09-24T06:04:31.085Z,12.40
2022-09-24T06:06:59.037Z,12.50
2022-09-24T06:09:28.337Z,12.60
2022-09-24T06:11:56.901Z,12.80
2022-09-24T06:14:24.903Z,12.80
2022-09-24T06:16:52.925Z,13.00
2022-09-24T06:19:20.948Z,13.10
2022-09-24T06:21:48.949Z,13.20
2022-09-24T06:24:16.922Z,13.30
2022-09-24T06:26:46.923Z,13.40
2022-09-24T06:29:15.135Z,13.50
2022-09-24T06:31:43.174Z,13.70
2022-09-24T06:34:11.364Z,13.70
2022-09-24T06:36:40.201Z,13.80
2022-09-24T06:39:09.293Z,13.90
2022-09-24T06:41:37.362Z,13.90
2022-09-24T06:44:06.684Z,14.00
2022-09-24T06:46:34.650Z,14.00
2022-09-24T06:49:02.638Z,14.10
2022-09-24T06:51:30.607Z,14.10
2022-09-24T06:53:58.561Z,14.00
2022-09-24T06:56:26.642Z,14.10
2022-09-24T06:58:54.663Z,14.20
2022-09-24T07:01:24.166Z,14.20
2022-09-24T07:03:52.262Z,14.20
2022-09-24T07:06:20.216Z,14.30
2022-09-24T07:08:51.788Z,14.40
2022-09-24T07:11:19.736Z,14.50
2022-09-24T07:13:47.743Z,14.40
2022-09-24T07:16:15.786Z,14.60
2022-09-24T07:18:45.198Z,14.80
2022-09-24T07:21:13.154Z,14.90
2022-09-24T07:23:41.158Z,14.90
2022-09-24T07:26:14.760Z,15.10
2022-09-24T07:28:42.711Z,15.30
2022-09-24T07:31:10.744Z,15.30
2022-09-24T07:33:38.851Z,15.20
2022-09-24T07:36:08.691Z,15.20
2022-09-24T07:38:37.246Z,15.30
2022-09-24T07:41:07.959Z,15.40
2022-09-24T07:43:35.974Z,15.40
2022-09-24T07:46:04.031Z,15.50
2022-09-24T07:48:32.406Z,15.60
2022-09-24T07:51:00.555Z,15.70
2022-09-24T07:53:29.888Z,15.70
2022-09-24T07:56:00.474Z,15.80
2022-09-24T07:58:28.634Z,15.80
2022-09-24T08:00:59.674Z,15.90
2022-09-24T08:03:28.043Z,16.00
2022-09-24T08:05:58.527Z,16.10
2022-09-24T08:08:26.967Z,16.30
2022-09-24T08:10:56.273Z,16.30
2022-09-24T08:13:27.717Z,16.40
2022-09-24T08:16:00.421Z,16.50
2022-09-24T08:18:29.399Z,16.30
2022-09-24T08:20:57.348Z,16.10
2022-09-24T08:23:25.340Z,16.10
2022-09-24T08:25:56.530Z,16.20
2022-09-24T08:28:24.506Z,16.50
2022-09-24T08:30:52.576Z,16.70
2022-09-24T08:33:20.644Z,16.90
2022-09-24T08:35:48.634Z,17.00
2022-09-24T08:38:16.872Z,17.20
2022-09-24T08:40:47.471Z,17.40
2022-09-24T08:43:29.924Z,17.80
2022-09-24T08:46:18.867Z,17.90
2022-09-24T08:48:51.511Z,18.30
2022-09-24T08:51:21.915Z,18.90
2022-09-24T08:53:55.962Z,19.10
2022-09-24T08:56:27.781Z,19.40
2022-09-24T08:59:01.471Z,19.90
2022-09-24T09:01:38.286Z,19.70
2022-09-24T09:04:19.639Z,19.70
2022-09-24T09:07:01.627Z,19.60
2022-09-24T09:09:41.259Z,19.40
2022-09-24T09:12:15.267Z,18.40
2022-09-24T09:14:50.188Z,18.50
2022-09-24T09:17:30.668Z,18.60
2022-09-24T09:20:02.650Z,18.50
2022-09-24T09:22:35.227Z,18.80
2022-09-24T09:25:12.376Z,18.50
2022-09-24T09:27:40.379Z,18.50
2022-09-24T09:30:15.245Z,18.60
2022-09-24T09:33:12.476Z,18.50
2022-09-24T09:35:48.529Z,18.30
2022-09-24T09:38:26.101Z,18.20
2022-09-24T09:41:04.024Z,17.90
2022-09-24T09:43:32.070Z,17.70
2022-09-24T09:46:09.183Z,17.60
2022-09-24T09:48:45.782Z,17.50
2022-09-24T09:51:22.706Z,17.20
2022-09-24T09:53:58.454Z,17.30
2022-09-24T09:56:29.483Z,17.40
2022-09-24T09:59:07.961Z,17.10
2022-09-24T10:01:41.644Z,16.90
2022-09-24T10:04:28.250Z,16.90
2022-09-24T10:07:05.495Z,16.90
2022-09-24T10:09:33.733Z,17.00
2022-09-24T10:12:09.672Z,17.00
2022-09-24T10:14:37.710Z,16.70
2022-09-24T10:17:07.337Z,16.70
2022-09-24T10:19:39.037Z,16.80
2022-09-24T10:22:16.114Z,16.70
2022-09-24T10:24:44.835Z,16.70
2022-09-24T10:27:13.298Z,16.70
2022-09-24T10:29:59.463Z,16.30
2022-09-24T10:32:30.464Z,16.10
2022-09-24T10:35:00.520Z,16.10
2022-09-24T10:37:29.917Z,16.30
2022-09-24T10:40:02.509Z,16.60
2022-09-24T10:42:31.736Z,16.90
2022-09-24T10:45:02.086Z,17.10
2022-09-24T10:47:42.118Z,17.40
2022-09-24T10:50:24.330Z,17.60
2022-09-24T10:52:55.297Z,17.50
2022-09-24T10:55:37.159Z,17.40
2022-09-24T10:58:14.098Z,17.40
2022-09-24T11:00:52.013Z,17.60
2022-09-24T11:03:57.827Z,17.70
2022-09-24T11:06:41.440Z,17.70
2022-09-24T11:09:18.184Z,17.60
2022-09-24T11:11:57.169Z,17.80
2022-09-24T11:14:38.621Z,18.10
2022-09-24T11:17:37.393Z,18.20
2022-09-24T11:20:23.605Z,18.30
2022-09-24T11:23:11.773Z,18.30
2022-09-24T11:25:45.754Z,18.20
2022-09-24T11:28:29.703Z,18.00
2022-09-24T11:31:09.031Z,18.00
2022-09-24T11:33:56.764Z,18.00
2022-09-24T11:36:37.064Z,18.00
2022-09-24T11:39:17.957Z,18.00
2022-09-24T11:41:55.364Z,17.90
2022-09-24T11:44:56.842Z,18.00
2022-09-24T11:47:37.636Z,18.10
2022-09-24T11:50:21.793Z,17.70
2022-09-24T11:52:55.618Z,17.20
2022-09-24T11:55:31.782Z,17.20
2022-09-24T11:58:08.054Z,17.20
2022-09-24T12:00:41.604Z,17.20
2022-09-24T12:03:20.988Z,17.60
2022-09-24T12:05:59.658Z,17.70
2022-09-24T12:08:36.358Z,17.70
2022-09-24T12:11:10.138Z,17.80
2022-09-24T12:13:42.795Z,18.00
2022-09-24T12:16:14.439Z,18.20
2022-09-24T12:18:50.516Z,18.00
2022-09-24T12:21:23.389Z,17.60
2022-09-24T12:24:02.214Z,17.30
2022-09-24T12:26:32.138Z,17.10
2022-09-24T12:29:21.604Z,16.90
2022-09-24T12:32:14.860Z,16.60
2022-09-24T12:34:50.838Z,16.60
2022-09-24T12:37:24.304Z,16.70
2022-09-24T12:40:00.400Z,16.80
2022-09-24T12:42:35.585Z,16.80
2022-09-24T12:45:05.106Z,16.90
2022-09-24T12:47:39.300Z,16.90
2022-09-24T12:50:09.339Z,16.90
2022-09-24T12:52:41.616Z,16.90
2022-09-24T12:55:21.998Z,16.80
2022-09-24T12:57:56.474Z,17.00
2022-09-24T13:00:42.695Z,17.10
2022-09-24T13:03:31.311Z,17.40
2022-09-24T13:06:00.255Z,18.30
2022-09-24T13:08:37.620Z,18.80
2022-09-24T13:11:26.812Z,18.50
2022-09-24T13:14:02.536Z,18.20
2022-09-24T13:16:32.797Z,18.20
2022-09-24T13:19:02.388Z,17.70
2022-09-24T13:21:31.806Z,17.50
2022-09-24T13:23:59.798Z,17.30
2022-09-24T13:26:33.758Z,17.10
2022-09-24T13:29:03.314Z,17.00
2022-09-24T13:31:44.861Z,17.10
2022-09-24T13:34:21.136Z,17.00
2022-09-24T13:36:57.515Z,17.00
2022-09-24T13:39:30.634Z,17.00
2022-09-24T13:42:07.439Z,17.00
2022-09-24T13:44:37.953Z,16.90
2022-09-24T13:47:13.405Z,16.70
2022-09-24T13:49:45.791Z,16.60
2022-09-24T13:52:19.561Z,16.60
2022-09-24T13:54:53.010Z,16.60
2022-09-24T13:57:25.357Z,16.60
2022-09-24T14:00:06.032Z,16.60
2022-09-24T14:02:38.716Z,16.50
2022-09-24T14:05:16.257Z,16.30
2022-09-24T14:07:53.361Z,16.30
2022-09-24T14:10:22.733Z,16.50
2022-09-24T14:13:02.060Z,16.60
2022-09-24T14:15:30.134Z,16.80
2022-09-24T14:17:59.339Z,17.00
2022-09-24T14:20:30.135Z,17.00
2022-09-24T14:22:58.109Z,17.00
2022-09-24T14:25:29.724Z,17.00
2022-09-24T14:28:02.308Z,16.90
2022-09-24T14:30:32.869Z,16.90
2022-09-24T14:33:04.056Z,16.90
2022-09-24T14:35:33.846Z,16.90
2022-09-24T14:38:06.463Z,17.00
2022-09-24T14:40:42.986Z,17.00
2022-09-24T14:43:19.564Z,17.00
2022-09-24T14:45:50.178Z,16.90
2022-09-24T14:48:22.120Z,16.70
2022-09-24T14:50:50.171Z,16.70
2022-09-24T14:53:28.313Z,16.80
2022-09-24T14:55:57.329Z,16.80
2022-09-24T14:58:36.245Z,16.90
2022-09-24T15:01:08.186Z,17.00
2022-09-24T15:03:42.097Z,16.90
2022-09-24T15:06:21.753Z,16.90
2022-09-24T15:08:59.261Z,16.80
2022-09-24T15:11:29.378Z,16.80
2022-09-24T15:14:04.584Z,16.70
2022-09-24T15:16:35.324Z,16.70
2022-09-24T15:19:16.905Z,16.90
2022-09-24T15:21:45.567Z,16.90
2022-09-24T15:24:13.597Z,17.10
2022-09-24T15:26:44.580Z,17.20
2022-09-24T15:29:20.039Z,17.20
2022-09-24T15:31:48.285Z,17.30
2022-09-24T15:34:19.730Z,17.40
2022-09-24T15:36:48.534Z,17.50
2022-09-24T15:39:18.775Z,17.70
2022-09-24T15:41:46.825Z,17.50
2022-09-24T15:44:21.844Z,17.60
2022-09-24T15:46:51.490Z,17.60
2022-09-24T15:49:21.896Z,17.50
2022-09-24T15:51:52.125Z,17.50
2022-09-24T15:54:21.633Z,17.40
2022-09-24T15:56:52.320Z,17.50
2022-09-24T15:59:23.410Z,17.50
2022-09-24T16:01:55.261Z,17.40
2022-09-24T16:04:23.249Z,17.30
2022-09-24T16:06:51.252Z,17.20
2022-09-24T16:09:19.295Z,17.10
2022-09-24T16:11:47.814Z,17.00
2022-09-24T16:14:15.830Z,16.90
2022-09-24T16:16:45.159Z,16.70
2022-09-24T16:19:13.196Z,16.70
2022-09-24T16:21:41.379Z,16.60
2022-09-24T16:24:09.416Z,16.60
2022-09-24T16:26:37.405Z,16.60
2022-09-24T16:29:07.099Z,16.60
2022-09-24T16:31:35.163Z,16.50
2022-09-24T16:34:04.765Z,16.40
2022-09-24T16:36:32.806Z,16.40
2022-09-24T16:39:00.823Z,16.30
2022-09-24T16:41:34.252Z,16.30
2022-09-24T16:44:02.610Z,16.20
2022-09-24T16:46:30.961Z,16.10
2022-09-24T16:48:59.206Z,16.00
2022-09-24T16:51:28.665Z,16.00
2022-09-24T16:53:57.300Z,15.80
2022-09-24T16:56:25.655Z,15.70
2022-09-24T16:58:53.636Z,15.60
2022-09-24T17:01:23.119Z,15.60
2022-09-24T17:03:55.244Z,15.50
2022-09-24T17:06:25.416Z,15.50
2022-09-24T17:09:12.544Z,15.50
2022-09-24T17:11:41.170Z,15.40
2022-09-24T17:14:10.977Z,15.40
2022-09-24T17:16:38.984Z,15.30
2022-09-24T17:19:08.175Z,15.30
2022-09-24T17:21:37.130Z,15.30
2022-09-24T17:24:07.002Z,15.30
2022-09-24T17:26:35.488Z,15.20
2022-09-24T17:29:04.337Z,15.10
2022-09-24T17:31:32.771Z,15.00
2022-09-24T17:34:02.914Z,14.90
2022-09-24T17:36:32.493Z,14.80
2022-09-24T17:39:01.164Z,14.60
2022-09-24T17:41:31.201Z,14.50
2022-09-24T17:43:59.786Z,14.50
2022-09-24T17:46:29.211Z,14.50
2022-09-24T17:48:59.411Z,14.60
2022-09-24T17:51:30.336Z,14.60
2022-09-24T17:53:58.381Z,14.70
2022-09-24T17:56:27.982Z,14.70
2022-09-24T17:58:57.630Z,14.80
2022-09-24T18:01:27.878Z,14.70
2022-09-24T18:03:56.962Z,14.70
2022-09-24T18:06:29.387Z,14.80
2022-09-24T18:09:02.607Z,14.80
2022-09-24T18:11:32.240Z,14.80
2022-09-24T18:14:02.613Z,14.80
2022-09-24T18:16:32.786Z,14.70
2022-09-24T18:19:02.545Z,14.70
2022-09-24T18:21:31.377Z,14.70
2022-09-24T18:24:00.995Z,14.70
2022-09-24T18:26:32.382Z,14.70
2022-09-24T18:29:04.164Z,14.70
2022-09-24T18:31:32.738Z,14.80
2022-09-24T18:34:04.122Z,14.70
2022-09-24T18:36:33.640Z,14.70
2022-09-24T18:39:01.768Z,14.60
2022-09-24T18:41:31.115Z,14.50
2022-09-24T18:44:01.339Z,14.60
2022-09-24T18:46:33.093Z,14.60
2022-09-24T18:49:01.889Z,14.50
2022-09-24T18:51:32.255Z,14.50
2022-09-24T18:54:02.980Z,14.40
2022-09-24T18:56:31.756Z,14.50
2022-09-24T18:59:06.040Z,14.50
2022-09-24T19:01:37.545Z,14.50
2022-09-24T19:04:06.288Z,14.40
2022-09-24T19:06:36.887Z,14.40
2022-09-24T19:09:05.846Z,14.30
2022-09-24T19:11:34.512Z,14.30
2022-09-24T19:14:04.095Z,14.20
2022-09-24T19:16:32.473Z,14.20
2022-09-24T19:19:01.880Z,14.10
2022-09-24T19:21:30.236Z,14.10
2022-09-24T19:23:59.752Z,14.10
2022-09-24T19:26:29.688Z,14.10
2022-09-24T19:28:58.423Z,14.10
2022-09-24T19:31:30.425Z,14.00
2022-09-24T19:34:00.157Z,14.00
2022-09-24T19:36:28.226Z,14.10
2022-09-24T19:38:56.376Z,14.00
2022-09-24T19:41:27.164Z,13.90
2022-09-24T19:43:57.775Z,13.90
2022-09-24T19:46:28.782Z,13.80
2022-09-24T19:48:57.828Z,13.90
2022-09-24T19:51:27.831Z,13.90
2022-09-24T19:53:57.520Z,13.90
2022-09-24T19:56:25.758Z,13.80
2022-09-24T19:58:55.888Z,13.90
2022-09-24T20:01:25.763Z,13.80
2022-09-24T20:03:55.655Z,13.80
2022-09-24T20:06:25.468Z,13.70
2022-09-24T20:08:53.705Z,13.70
2022-09-24T20:11:24.814Z,13.70
2022-09-24T20:13:55.253Z,13.60
2022-09-24T20:16:26.168Z,13.60
2022-09-24T20:18:57.790Z,13.60
2022-09-24T20:21:27.655Z,13.70
2022-09-24T20:23:57.487Z,13.70
2022-09-24T20:26:44.041Z,13.70
2022-09-24T20:29:13.689Z,13.70
2022-09-24T20:31:42.534Z,13.60
2022-09-24T20:34:11.949Z,13.60
2022-09-24T20:36:39.932Z,13.50
2022-09-24T20:39:07.928Z,13.50
2022-09-24T20:41:36.216Z,13.40
2022-09-24T20:44:04.484Z,13.40
2022-09-24T20:46:32.523Z,13.40
2022-09-24T20:49:01.581Z,13.30
2022-09-24T20:51:33.620Z,13.20
2022-09-24T20:54:02.110Z,13.20
2022-09-24T20:56:31.464Z,13.10
2022-09-24T20:59:00.937Z,13.10
2022-09-24T21:01:29.084Z,13.10
2022-09-24T21:03:58.179Z,13.10
2022-09-24T21:06:26.522Z,13.10
2022-09-24T21:08:55.795Z,13.10
2022-09-24T21:11:26.481Z,13.20
2022-09-24T21:13:57.120Z,13.10
2022-09-24T21:16:28.850Z,13.10
2022-09-24T21:18:57.138Z,13.10
2022-09-24T21:21:28.660Z,13.00
2022-09-24T21:24:00.772Z,13.10
2022-09-24T21:26:30.274Z,13.20
2022-09-24T21:29:01.667Z,13.10
2022-09-24T21:31:31.615Z,13.10
2022-09-24T21:33:59.983Z,13.00
2022-09-24T21:36:29.720Z,13.00
2022-09-24T21:39:00.930Z,12.90
2022-09-24T21:41:31.192Z,12.80
2022-09-24T21:43:59.365Z,13.00
2022-09-24T21:46:29.161Z,13.10
2022-09-24T21:48:57.294Z,13.20
2022-09-24T21:51:26.960Z,13.20
2022-09-24T21:54:00.293Z,13.00
2022-09-24T21:56:30.495Z,13.10
2022-09-24T21:58:59.245Z,13.00
2022-09-24T22:01:29.148Z,13.00
2022-09-24T22:03:59.128Z,13.00
2022-09-24T22:06:28.866Z,13.00
2022-09-24T22:08:58.791Z,13.00
2022-09-24T22:11:27.831Z,13.00
2022-09-24T22:14:00.958Z,13.00
2022-09-24T22:16:29.960Z,13.10
2022-09-24T22:18:58.494Z,13.10
2022-09-24T22:21:27.141Z,13.20
2022-09-24T22:23:56.072Z,13.20
2022-09-24T22:26:26.166Z,13.20
2022-09-24T22:28:57.198Z,13.20
2022-09-24T22:31:25.665Z,13.10
2022-09-24T22:34:11.766Z,13.10
2022-09-24T22:36:40.024Z,13.10
2022-09-24T22:39:08.590Z,13.10
2022-09-24T22:41:39.792Z,13.10
2022-09-24T22:44:09.158Z,13.10
2022-09-24T22:46:38.177Z,13.10
2022-09-24T22:49:07.039Z,13.10
2022-09-24T22:51:36.077Z,13.10
2022-09-24T22:54:04.104Z,13.10
2022-09-24T22:56:32.228Z,13.00
2022-09-24T22:59:01.541Z,13.10
2022-09-24T23:01:33.414Z,13.00
2022-09-24T23:04:03.063Z,13.00
2022-09-24T23:06:32.912Z,13.00
2022-09-24T23:09:01.942Z,12.90
2022-09-24T23:11:31.518Z,12.80
2022-09-24T23:14:01.322Z,12.90
2022-09-24T23:16:33.711Z,12.80
2022-09-24T23:19:03.360Z,12.80
2022-09-24T23:21:32.594Z,12.70
2022-09-24T23:24:02.111Z,12.70
2022-09-24T23:26:31.416Z,12.80
2022-09-24T23:29:00.689Z,12.60
2022-09-24T23:31:32.250Z,12.60
2022-09-24T23:34:01.752Z,12.50
2022-09-24T23:36:31.960Z,12.50
2022-09-24T23:39:01.029Z,12.50
2022-09-24T23:41:31.606Z,12.50
2022-09-24T23:44:00.433Z,12.50
2022-09-24T23:46:28.807Z,12.50
2022-09-24T23:48:58.349Z,12.50
2022-09-24T23:51:26.573Z,12.50
2022-09-24T23:53:55.013Z,12.40
2022-09-24T23:56:23.139Z,12.30
2022-09-24T23:58:51.087Z,12.30
